sensor_id;sensor_type;location;lat;lon;timestamp;P1;durP1;ratioP1;P2;durP2;ratioP2
3131;SDS011;62090;52.330;9.104;2023-02-28T00:00:36;10.07;;;4.80;;
3131;SDS011;62090;52.330;9.104;2023-02-28T00:03:08;5.10;;;4.03;;
3131;SDS011;62090;52.330;9.104;2023-02-28T00:05:38;6.00;;;3.67;;
3131;SDS011;62090;52.330;9.104;2023-02-28T00:08:08;5.10;;;3.60;;
3131;SDS011;62090;52.330;9.104;2023-02-28T00:10:39;9.60;;;4.80;;
3131;SDS011;62090;52.330;9.104;2023-02-28T00:13:09;7.93;;;4.10;;
3131;SDS011;62090;52.330;9.104;2023-02-28T00:15:39;6.27;;;4.27;;
3131;SDS011;62090;52.330;9.104;2023-02-28T00:18:12;9.30;;;5.40;;
3131;SDS011;62090;52.330;9.104;2023-02-28T00:20:41;5.97;;;3.80;;
3131;SDS011;62090;52.330;9.104;2023-02-28T00:23:11;7.60;;;4.10;;
3131;SDS011;62090;52.330;9.104;2023-02-28T00:25:41;6.07;;;3.80;;
3131;SDS011;62090;52.330;9.104;2023-02-28T00:28:10;7.50;;;3.67;;
3131;SDS011;62090;52.330;9.104;2023-02-28T00:30:40;6.23;;;3.90;;
3131;SDS011;62090;52.330;9.104;2023-02-28T00:33:12;5.83;;;3.60;;
3131;SDS011;62090;52.330;9.104;2023-02-28T00:35:42;6.43;;;3.63;;
3131;SDS011;62090;52.330;9.104;2023-02-28T00:38:12;6.78;;;4.07;;
3131;SDS011;62090;52.330;9.104;2023-02-28T00:40:42;10.23;;;3.40;;
3131;SDS011;62090;52.330;9.104;2023-02-28T00:43:13;4.30;;;3.00;;
3131;SDS011;62090;52.330;9.104;2023-02-28T00:45:43;6.00;;;2.87;;
3131;SDS011;62090;52.330;9.104;2023-02-28T00:48:16;4.70;;;2.93;;
3131;SDS011;62090;52.330;9.104;2023-02-28T00:50:47;4.93;;;3.33;;
3131;SDS011;62090;52.330;9.104;2023-02-28T00:53:17;6.75;;;3.33;;
3131;SDS011;62090;52.330;9.104;2023-02-28T00:55:47;4.93;;;3.38;;
3131;SDS011;62090;52.330;9.104;2023-02-28T00:58:18;5.65;;;3.38;;
3131;SDS011;62090;52.330;9.104;2023-02-28T01:00:47;7.20;;;3.88;;
3131;SDS011;62090;52.330;9.104;2023-02-28T01:03:20;4.90;;;3.37;;
3131;SDS011;62090;52.330;9.104;2023-02-28T01:05:51;8.13;;;4.20;;
3131;SDS011;62090;52.330;9.104;2023-02-28T01:08:22;5.97;;;3.63;;
3131;SDS011;62090;52.330;9.104;2023-02-28T01:10:52;7.00;;;3.05;;
3131;SDS011;62090;52.330;9.104;2023-02-28T01:13:22;5.72;;;3.17;;
3131;SDS011;62090;52.330;9.104;2023-02-28T01:15:54;4.97;;;3.40;;
3131;SDS011;62090;52.330;9.104;2023-02-28T01:18:27;6.40;;;3.40;;
3131;SDS011;62090;52.330;9.104;2023-02-28T01:20:57;5.82;;;3.45;;
3131;SDS011;62090;52.330;9.104;2023-02-28T01:23:27;8.18;;;4.22;;
3131;SDS011;62090;52.330;9.104;2023-02-28T01:25:57;5.75;;;3.90;;
3131;SDS011;62090;52.330;9.104;2023-02-28T01:28:27;6.82;;;4.57;;
3131;SDS011;62090;52.330;9.104;2023-02-28T01:30:57;7.00;;;4.33;;
3131;SDS011;62090;52.330;9.104;2023-02-28T01:33:29;7.43;;;3.77;;
3131;SDS011;62090;52.330;9.104;2023-02-28T01:35:59;6.28;;;4.20;;
3131;SDS011;62090;52.330;9.104;2023-02-28T01:38:29;7.63;;;4.32;;
3131;SDS011;62090;52.330;9.104;2023-02-28T01:40:59;8.35;;;4.35;;
3131;SDS011;62090;52.330;9.104;2023-02-28T01:43:30;6.45;;;4.30;;
3131;SDS011;62090;52.330;9.104;2023-02-28T01:46:01;8.63;;;4.88;;
3131;SDS011;62090;52.330;9.104;2023-02-28T01:48:34;6.23;;;4.60;;
3131;SDS011;62090;52.330;9.104;2023-02-28T01:51:08;7.83;;;5.00;;
3131;SDS011;62090;52.330;9.104;2023-02-28T01:53:43;8.73;;;5.20;;
3131;SDS011;62090;52.330;9.104;2023-02-28T01:56:16;6.90;;;4.72;;
3131;SDS011;62090;52.330;9.104;2023-02-28T01:58:49;8.98;;;5.05;;
3131;SDS011;62090;52.330;9.104;2023-02-28T02:01:22;7.85;;;5.50;;
3131;SDS011;62090;52.330;9.104;2023-02-28T02:03:59;9.98;;;5.35;;
3131;SDS011;62090;52.330;9.104;2023-02-28T02:06:34;13.33;;;6.67;;
3131;SDS011;62090;52.330;9.104;2023-02-28T02:09:09;12.32;;;6.50;;
3131;SDS011;62090;52.330;9.104;2023-02-28T02:11:39;11.80;;;6.03;;
3131;SDS011;62090;52.330;9.104;2023-02-28T02:14:31;10.13;;;6.32;;
3131;SDS011;62090;52.330;9.104;2023-02-28T02:17:14;15.73;;;8.83;;
3131;SDS011;62090;52.330;9.104;2023-02-28T02:20:04;12.50;;;8.33;;
3131;SDS011;62090;52.330;9.104;2023-02-28T02:22:53;14.53;;;7.50;;
3131;SDS011;62090;52.330;9.104;2023-02-28T02:25:39;12.65;;;7.75;;
3131;SDS011;62090;52.330;9.104;2023-02-28T02:28:22;20.20;;;6.93;;
3131;SDS011;62090;52.330;9.104;2023-02-28T02:31:18;10.20;;;6.25;;
3131;SDS011;62090;52.330;9.104;2023-02-28T02:36:59;9.60;;;6.40;;
3131;SDS011;62090;52.330;9.104;2023-02-28T02:39:38;12.27;;;6.88;;
3131;SDS011;62090;52.330;9.104;2023-02-28T02:42:15;8.40;;;6.00;;
3131;SDS011;62090;52.330;9.104;2023-02-28T02:44:53;10.10;;;6.47;;
3131;SDS011;62090;52.330;9.104;2023-02-28T02:47:27;11.02;;;6.18;;
3131;SDS011;62090;52.330;9.104;2023-02-28T02:50:05;11.80;;;6.22;;
3131;SDS011;62090;52.330;9.104;2023-02-28T02:52:39;13.57;;;6.20;;
3131;SDS011;62090;52.330;9.104;2023-02-28T02:55:12;17.60;;;6.80;;
3131;SDS011;62090;52.330;9.104;2023-02-28T02:57:45;9.00;;;5.78;;
3131;SDS011;62090;52.330;9.104;2023-02-28T03:00:19;13.05;;;6.45;;
3131;SDS011;62090;52.330;9.104;2023-02-28T03:02:52;10.82;;;6.57;;
3131;SDS011;62090;52.330;9.104;2023-02-28T03:05:28;10.65;;;5.47;;
3131;SDS011;62090;52.330;9.104;2023-02-28T03:08:03;12.18;;;6.35;;
3131;SDS011;62090;52.330;9.104;2023-02-28T03:10:35;10.20;;;5.65;;
3131;SDS011;62090;52.330;9.104;2023-02-28T03:16:18;7.53;;;5.82;;
3131;SDS011;62090;52.330;9.104;2023-02-28T03:19:00;13.60;;;6.40;;
3131;SDS011;62090;52.330;9.104;2023-02-28T03:21:40;7.15;;;5.65;;
3131;SDS011;62090;52.330;9.104;2023-02-28T03:24:14;11.10;;;6.05;;
3131;SDS011;62090;52.330;9.104;2023-02-28T03:26:52;13.00;;;7.18;;
3131;SDS011;62090;52.330;9.104;2023-02-28T03:29:28;10.68;;;6.55;;
3131;SDS011;62090;52.330;9.104;2023-02-28T03:32:05;10.63;;;6.38;;
3131;SDS011;62090;52.330;9.104;2023-02-28T03:34:46;11.82;;;6.28;;
3131;SDS011;62090;52.330;9.104;2023-02-28T03:37:22;12.60;;;6.73;;
3131;SDS011;62090;52.330;9.104;2023-02-28T03:39:57;10.18;;;6.85;;
3131;SDS011;62090;52.330;9.104;2023-02-28T03:42:33;10.07;;;6.22;;
3131;SDS011;62090;52.330;9.104;2023-02-28T03:45:08;9.32;;;6.57;;
3131;SDS011;62090;52.330;9.104;2023-02-28T03:47:44;11.30;;;6.35;;
3131;SDS011;62090;52.330;9.104;2023-02-28T03:50:18;10.30;;;6.20;;
3131;SDS011;62090;52.330;9.104;2023-02-28T03:52:56;9.57;;;6.47;;
3131;SDS011;62090;52.330;9.104;2023-02-28T03:55:32;12.02;;;5.57;;
3131;SDS011;62090;52.330;9.104;2023-02-28T03:58:10;7.55;;;5.18;;
3131;SDS011;62090;52.330;9.104;2023-02-28T04:00:45;8.70;;;5.80;;
3131;SDS011;62090;52.330;9.104;2023-02-28T04:03:18;9.93;;;5.43;;
3131;SDS011;62090;52.330;9.104;2023-02-28T04:05:49;10.55;;;5.57;;
3131;SDS011;62090;52.330;9.104;2023-02-28T04:08:23;7.10;;;5.18;;
3131;SDS011;62090;52.330;9.104;2023-02-28T04:10:55;7.05;;;5.15;;
3131;SDS011;62090;52.330;9.104;2023-02-28T04:13:29;8.57;;;5.18;;
3131;SDS011;62090;52.330;9.104;2023-02-28T04:15:59;8.65;;;5.60;;
3131;SDS011;62090;52.330;9.104;2023-02-28T04:18:47;9.18;;;5.50;;
3131;SDS011;62090;52.330;9.104;2023-02-28T04:21:16;7.32;;;5.18;;
3131;SDS011;62090;52.330;9.104;2023-02-28T04:23:51;8.70;;;5.05;;
3131;SDS011;62090;52.330;9.104;2023-02-28T04:26:20;10.63;;;5.22;;
3131;SDS011;62090;52.330;9.104;2023-02-28T04:28:50;8.65;;;5.47;;
3131;SDS011;62090;52.330;9.104;2023-02-28T04:31:20;9.80;;;5.20;;
3131;SDS011;62090;52.330;9.104;2023-02-28T04:33:50;8.50;;;5.30;;
3131;SDS011;62090;52.330;9.104;2023-02-28T04:36:19;10.70;;;5.50;;
3131;SDS011;62090;52.330;9.104;2023-02-28T04:38:52;9.38;;;6.35;;
3131;SDS011;62090;52.330;9.104;2023-02-28T04:41:22;7.80;;;5.32;;
3131;SDS011;62090;52.330;9.104;2023-02-28T04:43:55;6.93;;;5.82;;
3131;SDS011;62090;52.330;9.104;2023-02-28T04:46:25;9.95;;;5.43;;
3131;SDS011;62090;52.330;9.104;2023-02-28T04:48:54;9.40;;;6.10;;
3131;SDS011;62090;52.330;9.104;2023-02-28T04:51:24;9.10;;;6.55;;
3131;SDS011;62090;52.330;9.104;2023-02-28T04:53:57;8.40;;;5.55;;
3131;SDS011;62090;52.330;9.104;2023-02-28T04:56:27;7.82;;;5.80;;
3131;SDS011;62090;52.330;9.104;2023-02-28T04:58:56;8.70;;;6.05;;
3131;SDS011;62090;52.330;9.104;2023-02-28T05:01:27;9.25;;;5.53;;
3131;SDS011;62090;52.330;9.104;2023-02-28T05:03:59;12.20;;;6.50;;
3131;SDS011;62090;52.330;9.104;2023-02-28T05:06:31;11.98;;;6.22;;
3131;SDS011;62090;52.330;9.104;2023-02-28T05:09:05;7.97;;;5.30;;
3131;SDS011;62090;52.330;9.104;2023-02-28T05:11:35;8.90;;;5.80;;
3131;SDS011;62090;52.330;9.104;2023-02-28T05:14:06;9.80;;;5.97;;
3131;SDS011;62090;52.330;9.104;2023-02-28T05:16:40;7.82;;;5.70;;
3131;SDS011;62090;52.330;9.104;2023-02-28T05:19:10;12.02;;;6.55;;
3131;SDS011;62090;52.330;9.104;2023-02-28T05:21:40;9.35;;;5.40;;
3131;SDS011;62090;52.330;9.104;2023-02-28T05:24:20;10.38;;;6.22;;
3131;SDS011;62090;52.330;9.104;2023-02-28T05:26:52;10.30;;;6.00;;
3131;SDS011;62090;52.330;9.104;2023-02-28T05:29:22;11.27;;;6.40;;
3131;SDS011;62090;52.330;9.104;2023-02-28T05:31:52;11.18;;;5.95;;
3131;SDS011;62090;52.330;9.104;2023-02-28T05:34:22;9.48;;;6.32;;
3131;SDS011;62090;52.330;9.104;2023-02-28T05:36:52;7.38;;;5.75;;
3131;SDS011;62090;52.330;9.104;2023-02-28T05:39:24;11.35;;;5.85;;
3131;SDS011;62090;52.330;9.104;2023-02-28T05:41:54;9.30;;;5.60;;
3131;SDS011;62090;52.330;9.104;2023-02-28T05:44:23;10.05;;;5.90;;
3131;SDS011;62090;52.330;9.104;2023-02-28T05:46:53;10.57;;;6.18;;
3131;SDS011;62090;52.330;9.104;2023-02-28T05:49:23;7.07;;;5.20;;
3131;SDS011;62090;52.330;9.104;2023-02-28T05:51:53;8.00;;;5.80;;
3131;SDS011;62090;52.330;9.104;2023-02-28T05:54:25;9.40;;;5.50;;
3131;SDS011;62090;52.330;9.104;2023-02-28T05:56:55;8.48;;;6.00;;
3131;SDS011;62090;52.330;9.104;2023-02-28T05:59:25;11.93;;;6.00;;
3131;SDS011;62090;52.330;9.104;2023-02-28T06:01:54;9.10;;;5.65;;
3131;SDS011;62090;52.330;9.104;2023-02-28T06:04:24;9.40;;;5.60;;
3131;SDS011;62090;52.330;9.104;2023-02-28T06:06:57;9.90;;;5.50;;
3131;SDS011;62090;52.330;9.104;2023-02-28T06:09:30;8.15;;;5.10;;
3131;SDS011;62090;52.330;9.104;2023-02-28T06:12:01;8.77;;;5.28;;
3131;SDS011;62090;52.330;9.104;2023-02-28T06:14:33;9.07;;;5.80;;
3131;SDS011;62090;52.330;9.104;2023-02-28T06:17:03;7.85;;;5.30;;
3131;SDS011;62090;52.330;9.104;2023-02-28T06:19:33;8.98;;;5.60;;
3131;SDS011;62090;52.330;9.104;2023-02-28T06:22:05;7.97;;;5.45;;
3131;SDS011;62090;52.330;9.104;2023-02-28T06:24:37;6.78;;;5.22;;
3131;SDS011;62090;52.330;9.104;2023-02-28T06:27:07;6.32;;;5.07;;
3131;SDS011;62090;52.330;9.104;2023-02-28T06:29:39;8.23;;;5.78;;
3131;SDS011;62090;52.330;9.104;2023-02-28T06:32:09;9.95;;;5.70;;
3131;SDS011;62090;52.330;9.104;2023-02-28T06:34:39;7.60;;;5.45;;
3131;SDS011;62090;52.330;9.104;2023-02-28T06:37:08;10.93;;;5.82;;
3131;SDS011;62090;52.330;9.104;2023-02-28T06:39:41;11.50;;;5.68;;
3131;SDS011;62090;52.330;9.104;2023-02-28T06:42:11;7.72;;;5.30;;
3131;SDS011;62090;52.330;9.104;2023-02-28T06:44:40;7.25;;;5.35;;
3131;SDS011;62090;52.330;9.104;2023-02-28T06:47:10;7.53;;;5.30;;
3131;SDS011;62090;52.330;9.104;2023-02-28T06:49:40;7.47;;;5.60;;
3131;SDS011;62090;52.330;9.104;2023-02-28T06:52:11;8.00;;;6.50;;
3131;SDS011;62090;52.330;9.104;2023-02-28T06:54:44;10.65;;;6.25;;
3131;SDS011;62090;52.330;9.104;2023-02-28T06:57:13;9.82;;;5.90;;
3131;SDS011;62090;52.330;9.104;2023-02-28T06:59:43;9.52;;;5.53;;
3131;SDS011;62090;52.330;9.104;2023-02-28T07:02:13;9.82;;;6.78;;
3131;SDS011;62090;52.330;9.104;2023-02-28T07:04:42;10.65;;;6.45;;
3131;SDS011;62090;52.330;9.104;2023-02-28T07:07:12;9.45;;;6.15;;
3131;SDS011;62090;52.330;9.104;2023-02-28T07:09:45;10.45;;;6.40;;
3131;SDS011;62090;52.330;9.104;2023-02-28T07:12:14;10.88;;;5.88;;
3131;SDS011;62090;52.330;9.104;2023-02-28T07:14:44;11.02;;;6.50;;
3131;SDS011;62090;52.330;9.104;2023-02-28T07:17:14;8.43;;;6.18;;
3131;SDS011;62090;52.330;9.104;2023-02-28T07:19:46;9.27;;;6.97;;
3131;SDS011;62090;52.330;9.104;2023-02-28T07:22:15;8.07;;;6.25;;
3131;SDS011;62090;52.330;9.104;2023-02-28T07:24:48;12.93;;;8.55;;
3131;SDS011;62090;52.330;9.104;2023-02-28T07:27:18;11.35;;;7.60;;
3131;SDS011;62090;52.330;9.104;2023-02-28T07:29:52;12.10;;;8.30;;
3131;SDS011;62090;52.330;9.104;2023-02-28T07:32:22;15.55;;;9.50;;
3131;SDS011;62090;52.330;9.104;2023-02-28T07:34:52;14.82;;;8.35;;
3131;SDS011;62090;52.330;9.104;2023-02-28T07:37:22;11.98;;;8.23;;
3131;SDS011;62090;52.330;9.104;2023-02-28T07:39:54;13.48;;;8.80;;
3131;SDS011;62090;52.330;9.104;2023-02-28T07:42:24;15.50;;;8.77;;
3131;SDS011;62090;52.330;9.104;2023-02-28T07:44:56;11.82;;;8.60;;
3131;SDS011;62090;52.330;9.104;2023-02-28T07:47:29;11.73;;;8.45;;
3131;SDS011;62090;52.330;9.104;2023-02-28T07:49:59;13.23;;;8.82;;
3131;SDS011;62090;52.330;9.104;2023-02-28T07:52:34;11.15;;;7.53;;
3131;SDS011;62090;52.330;9.104;2023-02-28T07:55:08;13.50;;;8.20;;
3131;SDS011;62090;52.330;9.104;2023-02-28T07:57:40;9.98;;;6.85;;
3131;SDS011;62090;52.330;9.104;2023-02-28T08:00:10;8.30;;;6.95;;
3131;SDS011;62090;52.330;9.104;2023-02-28T08:02:41;12.82;;;7.32;;
3131;SDS011;62090;52.330;9.104;2023-02-28T08:05:13;18.13;;;7.75;;
3131;SDS011;62090;52.330;9.104;2023-02-28T08:07:48;13.50;;;8.90;;
3131;SDS011;62090;52.330;9.104;2023-02-28T08:10:22;13.95;;;8.82;;
3131;SDS011;62090;52.330;9.104;2023-02-28T08:12:52;11.15;;;8.32;;
3131;SDS011;62090;52.330;9.104;2023-02-28T08:15:22;9.95;;;8.20;;
3131;SDS011;62090;52.330;9.104;2023-02-28T08:17:52;12.95;;;8.70;;
3131;SDS011;62090;52.330;9.104;2023-02-28T08:20:22;10.98;;;8.07;;
3131;SDS011;62090;52.330;9.104;2023-02-28T08:22:52;14.77;;;9.43;;
3131;SDS011;62090;52.330;9.104;2023-02-28T08:25:25;11.73;;;7.88;;
3131;SDS011;62090;52.330;9.104;2023-02-28T08:27:55;13.25;;;8.98;;
3131;SDS011;62090;52.330;9.104;2023-02-28T08:30:24;11.10;;;8.45;;
3131;SDS011;62090;52.330;9.104;2023-02-28T08:32:57;9.13;;;6.25;;
3131;SDS011;62090;52.330;9.104;2023-02-28T08:35:28;6.30;;;5.05;;
3131;SDS011;62090;52.330;9.104;2023-02-28T08:37:58;6.72;;;3.72;;
3131;SDS011;62090;52.330;9.104;2023-02-28T08:40:30;7.00;;;3.65;;
3131;SDS011;62090;52.330;9.104;2023-02-28T08:43:00;6.95;;;4.38;;
3131;SDS011;62090;52.330;9.104;2023-02-28T08:45:29;8.60;;;3.90;;
3131;SDS011;62090;52.330;9.104;2023-02-28T08:47:59;4.47;;;3.22;;
3131;SDS011;62090;52.330;9.104;2023-02-28T08:50:29;5.97;;;3.75;;
3131;SDS011;62090;52.330;9.104;2023-02-28T08:52:59;5.70;;;4.15;;
3131;SDS011;62090;52.330;9.104;2023-02-28T08:55:31;6.85;;;4.38;;
3131;SDS011;62090;52.330;9.104;2023-02-28T08:58:01;8.60;;;4.70;;
3131;SDS011;62090;52.330;9.104;2023-02-28T09:00:34;7.07;;;4.55;;
3131;SDS011;62090;52.330;9.104;2023-02-28T09:03:03;9.10;;;4.80;;
3131;SDS011;62090;52.330;9.104;2023-02-28T09:05:36;8.93;;;5.38;;
3131;SDS011;62090;52.330;9.104;2023-02-28T09:08:05;7.00;;;5.05;;
3131;SDS011;62090;52.330;9.104;2023-02-28T09:10:38;6.97;;;5.15;;
3131;SDS011;62090;52.330;9.104;2023-02-28T09:13:07;7.57;;;4.70;;
3131;SDS011;62090;52.330;9.104;2023-02-28T09:15:37;6.88;;;3.92;;
3131;SDS011;62090;52.330;9.104;2023-02-28T09:18:07;9.52;;;3.50;;
3131;SDS011;62090;52.330;9.104;2023-02-28T09:20:37;5.90;;;3.90;;
3131;SDS011;62090;52.330;9.104;2023-02-28T09:23:08;6.00;;;3.50;;
3131;SDS011;62090;52.330;9.104;2023-02-28T09:25:44;6.75;;;3.55;;
3131;SDS011;62090;52.330;9.104;2023-02-28T09:28:15;4.88;;;3.40;;
3131;SDS011;62090;52.330;9.104;2023-02-28T09:30:46;6.70;;;4.20;;
3131;SDS011;62090;52.330;9.104;2023-02-28T09:33:17;5.55;;;4.30;;
3131;SDS011;62090;52.330;9.104;2023-02-28T09:35:48;10.13;;;4.10;;
3131;SDS011;62090;52.330;9.104;2023-02-28T09:38:18;4.17;;;3.20;;
3131;SDS011;62090;52.330;9.104;2023-02-28T09:40:51;5.60;;;3.83;;
3131;SDS011;62090;52.330;9.104;2023-02-28T09:43:23;5.13;;;3.55;;
3131;SDS011;62090;52.330;9.104;2023-02-28T09:45:56;7.20;;;2.97;;
3131;SDS011;62090;52.330;9.104;2023-02-28T09:48:33;7.63;;;3.87;;
3131;SDS011;62090;52.330;9.104;2023-02-28T09:51:10;6.53;;;3.80;;
3131;SDS011;62090;52.330;9.104;2023-02-28T09:53:57;5.67;;;3.20;;
3131;SDS011;62090;52.330;9.104;2023-02-28T09:56:30;5.00;;;3.00;;
3131;SDS011;62090;52.330;9.104;2023-02-28T09:59:06;5.27;;;3.33;;
3131;SDS011;62090;52.330;9.104;2023-02-28T10:01:43;6.15;;;2.80;;
3131;SDS011;62090;52.330;9.104;2023-02-28T10:04:28;6.00;;;2.87;;
3131;SDS011;62090;52.330;9.104;2023-02-28T10:07:11;9.27;;;3.00;;
3131;SDS011;62090;52.330;9.104;2023-02-28T10:09:52;5.87;;;3.00;;
3131;SDS011;62090;52.330;9.104;2023-02-28T10:12:29;3.70;;;2.73;;
3131;SDS011;62090;52.330;9.104;2023-02-28T10:15:01;4.93;;;2.70;;
3131;SDS011;62090;52.330;9.104;2023-02-28T10:17:35;4.60;;;2.60;;
3131;SDS011;62090;52.330;9.104;2023-02-28T10:20:26;7.67;;;3.00;;
3131;SDS011;62090;52.330;9.104;2023-02-28T10:23:02;5.63;;;3.10;;
3131;SDS011;62090;52.330;9.104;2023-02-28T10:25:39;7.47;;;2.90;;
3131;SDS011;62090;52.330;9.104;2023-02-28T10:28:18;6.97;;;2.20;;
3131;SDS011;62090;52.330;9.104;2023-02-28T10:30:54;3.23;;;2.27;;
3131;SDS011;62090;52.330;9.104;2023-02-28T10:33:30;4.57;;;2.90;;
3131;SDS011;62090;52.330;9.104;2023-02-28T10:36:04;3.90;;;2.90;;
3131;SDS011;62090;52.330;9.104;2023-02-28T10:38:42;4.50;;;2.67;;
3131;SDS011;62090;52.330;9.104;2023-02-28T10:41:33;6.90;;;2.80;;
3131;SDS011;62090;52.330;9.104;2023-02-28T10:44:17;3.70;;;2.83;;
3131;SDS011;62090;52.330;9.104;2023-02-28T10:46:51;7.10;;;2.70;;
3131;SDS011;62090;52.330;9.104;2023-02-28T10:49:22;6.50;;;3.30;;
3131;SDS011;62090;52.330;9.104;2023-02-28T10:51:54;4.80;;;2.90;;
3131;SDS011;62090;52.330;9.104;2023-02-28T10:54:27;4.53;;;2.97;;
3131;SDS011;62090;52.330;9.104;2023-02-28T10:57:08;6.83;;;3.27;;
3131;SDS011;62090;52.330;9.104;2023-02-28T10:59:46;5.13;;;3.00;;
3131;SDS011;62090;52.330;9.104;2023-02-28T11:02:28;5.03;;;2.70;;
3131;SDS011;62090;52.330;9.104;2023-02-28T11:05:00;3.23;;;2.33;;
3131;SDS011;62090;52.330;9.104;2023-02-28T11:07:52;8.17;;;3.10;;
3131;SDS011;62090;52.330;9.104;2023-02-28T11:10:44;5.53;;;3.03;;
3131;SDS011;62090;52.330;9.104;2023-02-28T11:13:16;5.23;;;3.03;;
3131;SDS011;62090;52.330;9.104;2023-02-28T11:15:53;10.33;;;3.20;;
3131;SDS011;62090;52.330;9.104;2023-02-28T11:18:25;6.60;;;3.07;;
3131;SDS011;62090;52.330;9.104;2023-02-28T11:20:59;3.80;;;2.33;;
3131;SDS011;62090;52.330;9.104;2023-02-28T11:23:32;6.07;;;4.17;;
3131;SDS011;62090;52.330;9.104;2023-02-28T11:26:06;4.40;;;2.33;;
3131;SDS011;62090;52.330;9.104;2023-02-28T11:28:38;5.43;;;2.90;;
3131;SDS011;62090;52.330;9.104;2023-02-28T11:31:18;5.53;;;2.60;;
3131;SDS011;62090;52.330;9.104;2023-02-28T11:33:49;5.43;;;3.43;;
3131;SDS011;62090;52.330;9.104;2023-02-28T11:36:23;9.73;;;2.80;;
3131;SDS011;62090;52.330;9.104;2023-02-28T11:38:54;4.67;;;2.93;;
3131;SDS011;62090;52.330;9.104;2023-02-28T11:41:31;5.60;;;2.70;;
3131;SDS011;62090;52.330;9.104;2023-02-28T11:44:17;4.70;;;2.60;;
3131;SDS011;62090;52.330;9.104;2023-02-28T11:46:57;5.20;;;2.47;;
3131;SDS011;62090;52.330;9.104;2023-02-28T11:49:35;7.43;;;2.90;;
3131;SDS011;62090;52.330;9.104;2023-02-28T11:52:18;5.97;;;2.53;;
3131;SDS011;62090;52.330;9.104;2023-02-28T11:54:53;5.20;;;2.67;;
3131;SDS011;62090;52.330;9.104;2023-02-28T11:57:56;5.63;;;2.50;;
3131;SDS011;62090;52.330;9.104;2023-02-28T12:00:39;3.03;;;2.00;;
3131;SDS011;62090;52.330;9.104;2023-02-28T12:03:26;5.07;;;2.83;;
3131;SDS011;62090;52.330;9.104;2023-02-28T12:06:21;3.20;;;2.10;;
3131;SDS011;62090;52.330;9.104;2023-02-28T12:09:00;2.50;;;1.70;;
3131;SDS011;62090;52.330;9.104;2023-02-28T12:11:36;6.07;;;1.80;;
3131;SDS011;62090;52.330;9.104;2023-02-28T12:14:19;3.13;;;1.83;;
3131;SDS011;62090;52.330;9.104;2023-02-28T12:17:00;2.13;;;1.63;;
3131;SDS011;62090;52.330;9.104;2023-02-28T12:19:39;4.60;;;1.77;;
3131;SDS011;62090;52.330;9.104;2023-02-28T12:28:10;3.27;;;1.60;;
3131;SDS011;62090;52.330;9.104;2023-02-28T12:30:46;5.07;;;2.00;;
3131;SDS011;62090;52.330;9.104;2023-02-28T12:33:22;4.87;;;2.50;;
3131;SDS011;62090;52.330;9.104;2023-02-28T12:36:01;2.90;;;1.80;;
3131;SDS011;62090;52.330;9.104;2023-02-28T12:38:38;3.67;;;1.90;;
3131;SDS011;62090;52.330;9.104;2023-02-28T12:41:14;3.60;;;1.90;;
3131;SDS011;62090;52.330;9.104;2023-02-28T12:43:49;4.20;;;2.00;;
3131;SDS011;62090;52.330;9.104;2023-02-28T12:46:27;2.80;;;1.83;;
3131;SDS011;62090;52.330;9.104;2023-02-28T12:49:05;2.43;;;1.70;;
3131;SDS011;62090;52.330;9.104;2023-02-28T12:52:48;4.30;;;1.77;;
3131;SDS011;62090;52.330;9.104;2023-02-28T22:06:36;10.55;;;6.00;;
3131;SDS011;62090;52.330;9.104;2023-02-28T22:10:18;12.00;;;7.10;;
3131;SDS011;62090;52.330;9.104;2023-02-28T23:42:55;8.70;;;7.00;;
3131;SDS011;62090;52.330;9.104;2023-02-28T23:46:11;9.90;;;7.70;;
3131;SDS011;62090;52.330;9.104;2023-02-28T23:50:10;10.57;;;6.20;;
